Time;durP1;ratioP1;P1;durP2;ratioP2;P2;SDS_P1;SDS_P2;PMS_P1;PMS_P2;Temp;Humidity;BMP_temperature;BMP_pressure;BME280_temperature;BME280_humidity;BME280_pressure;Samples;Min_cycle;Max_cycle;Signal;HPM_P1;HPM_P2
2022/11/13 00:01:54;;;;;;;;;;;23.70;36.40;;;;;;484126;246;1169;-74
2022/11/13 00:03:55;;;;;;;;;;;23.60;36.60;;;;;;484233;246;2168;-74
2022/11/13 00:05:56;;;;;;;;;;;23.60;36.60;;;;;;484139;246;1159;-74
2022/11/13 00:07:57;;;;;;;;;;;23.60;36.50;;;;;;484139;246;1185;-74
2022/11/13 00:09:59;;;;;;;;;;;23.70;36.60;;;;;;484199;246;1160;-74
2022/11/13 00:12:00;;;;;;;;;;;23.70;37.10;;;;;;484150;246;1215;-74
2022/11/13 00:14:01;;;;;;;;;;;23.70;37.00;;;;;;484105;246;1238;-74
2022/11/13 00:16:03;;;;;;;;;;;23.70;36.50;;;;;;484202;246;1285;-74
2022/11/13 00:18:04;;;;;;;;;;;23.80;36.30;;;;;;484192;246;1153;-74
2022/11/13 00:20:05;;;;;;;;;;;23.80;36.60;;;;;;484194;246;1362;-74
2022/11/13 00:22:07;;;;;;;;;;;23.80;36.50;;;;;;484280;246;1168;-74
2022/11/13 00:24:08;;;;;;;;;;;23.80;36.30;;;;;;484161;246;2192;-74
2022/11/13 00:26:09;;;;;;;;;;;23.80;36.80;;;;;;484178;242;1184;-74
2022/11/13 00:28:11;;;;;;;;;;;23.80;36.50;;;;;;484141;246;1124;-74
2022/11/13 00:30:12;;;;;;;;;;;23.80;36.60;;;;;;484315;246;1166;-74
2022/11/13 00:32:13;;;;;;;;;;;23.90;36.60;;;;;;484247;246;1116;-74
2022/11/13 00:34:15;;;;;;;;;;;23.90;36.40;;;;;;484202;246;1123;-74
2022/11/13 00:36:16;;;;;;;;;;;23.80;36.30;;;;;;484267;246;1131;-74
2022/11/13 00:38:17;;;;;;;;;;;23.80;36.50;;;;;;484224;246;1361;-74
2022/11/13 00:40:19;;;;;;;;;;;23.80;36.80;;;;;;484250;246;1176;-74
2022/11/13 00:42:20;;;;;;;;;;;23.70;36.40;;;;;;484212;246;1274;-74
2022/11/13 00:44:21;;;;;;;;;;;23.70;36.70;;;;;;484121;246;2196;-74
2022/11/13 00:46:23;;;;;;;;;;;23.70;36.50;;;;;;484173;246;1186;-74
2022/11/13 00:48:24;;;;;;;;;;;23.70;36.40;;;;;;484238;246;1191;-74
2022/11/13 00:50:25;;;;;;;;;;;23.70;36.30;;;;;;484168;246;1237;-74
2022/11/13 00:52:27;;;;;;;;;;;23.70;36.20;;;;;;484132;246;1182;-74
2022/11/13 00:54:28;;;;;;;;;;;23.70;36.20;;;;;;484161;246;1313;-74
2022/11/13 00:56:29;;;;;;;;;;;23.70;36.70;;;;;;484237;246;1205;-74
2022/11/13 00:58:31;;;;;;;;;;;23.60;36.40;;;;;;484089;246;1125;-74
2022/11/13 01:00:32;;;;;;;;;;;23.60;37.00;;;;;;484133;246;1345;-74
2022/11/13 01:02:33;;;;;;;;;;;23.70;37.40;;;;;;484135;246;1308;-74
2022/11/13 01:04:35;;;;;;;;;;;23.70;36.80;;;;;;484185;246;2160;-74
2022/11/13 01:06:36;;;;;;;;;;;23.70;37.70;;;;;;484103;246;1302;-74
2022/11/13 01:08:37;;;;;;;;;;;23.70;37.20;;;;;;484128;246;1200;-74
2022/11/13 01:10:39;;;;;;;;;;;23.80;37.00;;;;;;484175;246;1213;-74
2022/11/13 01:12:40;;;;;;;;;;;23.80;37.30;;;;;;484236;246;1191;-74
2022/11/13 01:14:41;;;;;;;;;;;23.80;37.00;;;;;;484097;246;1285;-74
2022/11/13 01:16:43;;;;;;;;;;;23.70;37.20;;;;;;484157;246;1190;-74
2022/11/13 01:18:44;;;;;;;;;;;23.70;36.90;;;;;;484156;246;1204;-74
2022/11/13 01:20:45;;;;;;;;;;;23.80;36.50;;;;;;484173;246;1177;-74
2022/11/13 01:22:47;;;;;;;;;;;23.80;37.30;;;;;;484185;246;1289;-74
2022/11/13 01:24:48;;;;;;;;;;;23.80;36.60;;;;;;484123;246;2204;-74
2022/11/13 01:26:49;;;;;;;;;;;23.90;36.60;;;;;;484166;246;1251;-74
2022/11/13 01:28:50;;;;;;;;;;;23.90;37.10;;;;;;484096;246;1232;-74
2022/11/13 01:30:52;;;;;;;;;;;23.90;36.70;;;;;;484140;246;1222;-74
2022/11/13 01:32:53;;;;;;;;;;;23.90;36.60;;;;;;484180;246;1191;-75
2022/11/13 01:34:54;;;;;;;;;;;23.90;36.80;;;;;;484148;246;1199;-74
2022/11/13 01:36:56;;;;;;;;;;;23.90;36.50;;;;;;484165;246;1262;-74
2022/11/13 01:38:57;;;;;;;;;;;23.90;36.60;;;;;;484158;246;1190;-74
2022/11/13 01:40:58;;;;;;;;;;;23.90;36.50;;;;;;484147;246;1342;-74
2022/11/13 01:43:00;;;;;;;;;;;23.90;36.60;;;;;;484171;246;1162;-74
2022/11/13 01:45:01;;;;;;;;;;;23.90;36.60;;;;;;484142;242;2184;-74
2022/11/13 01:47:03;;;;;;;;;;;24.00;36.20;;;;;;484234;246;1384;-74
2022/11/13 01:49:04;;;;;;;;;;;23.90;36.50;;;;;;484207;246;1172;-74
2022/11/13 01:51:05;;;;;;;;;;;24.00;36.50;;;;;;484202;246;1231;-74
2022/11/13 01:53:07;;;;;;;;;;;24.00;36.10;;;;;;484227;246;1172;-74
2022/11/13 01:55:08;;;;;;;;;;;24.00;36.50;;;;;;484166;246;1185;-74
2022/11/13 01:57:09;;;;;;;;;;;24.00;36.30;;;;;;484163;246;1236;-74
2022/11/13 01:59:11;;;;;;;;;;;24.00;36.10;;;;;;484194;246;1233;-74
2022/11/13 02:01:12;;;;;;;;;;;24.00;36.60;;;;;;484205;246;1179;-74
2022/11/13 02:03:13;;;;;;;;;;;24.00;36.30;;;;;;484185;246;1194;-74
2022/11/13 02:05:15;;;;;;;;;;;23.90;36.20;;;;;;484161;246;2204;-74
2022/11/13 02:07:16;;;;;;;;;;;23.80;36.30;;;;;;484170;246;1210;-74
2022/11/13 02:09:17;;;;;;;;;;;23.80;36.50;;;;;;484182;246;1221;-74
2022/11/13 02:11:19;;;;;;;;;;;23.60;36.70;;;;;;484151;246;1252;-74
2022/11/13 02:13:20;;;;;;;;;;;23.60;36.40;;;;;;484192;246;1205;-74
2022/11/13 02:15:22;;;;;;;;;;;23.60;37.00;;;;;;484154;246;1185;-74
2022/11/13 02:17:23;;;;;;;;;;;23.60;36.50;;;;;;484184;246;1178;-74
2022/11/13 02:19:24;;;;;;;;;;;23.60;37.10;;;;;;484167;246;1177;-74
2022/11/13 02:21:26;;;;;;;;;;;23.70;37.00;;;;;;484278;246;1185;-74
2022/11/13 02:23:27;;;;;;;;;;;23.70;36.60;;;;;;484183;246;1171;-74
2022/11/13 02:25:28;;;;;;;;;;;23.60;36.80;;;;;;484238;246;2203;-74
2022/11/13 02:27:30;;;;;;;;;;;23.60;37.00;;;;;;484198;246;1214;-74
2022/11/13 02:29:31;;;;;;;;;;;23.70;36.70;;;;;;484180;246;1302;-74
2022/11/13 02:31:32;;;;;;;;;;;23.60;37.10;;;;;;484228;246;1192;-74
2022/11/13 02:33:34;;;;;;;;;;;23.60;36.60;;;;;;484219;246;1230;-74
2022/11/13 02:35:35;;;;;;;;;;;23.60;37.10;;;;;;484204;246;1212;-74
2022/11/13 02:37:36;;;;;;;;;;;23.60;36.70;;;;;;484165;246;1183;-74
2022/11/13 02:39:38;;;;;;;;;;;23.50;37.20;;;;;;484159;242;1146;-74
2022/11/13 02:41:39;;;;;;;;;;;23.50;36.80;;;;;;484262;246;1287;-74
2022/11/13 02:43:40;;;;;;;;;;;23.40;37.20;;;;;;484136;246;1187;-74
2022/11/13 02:45:42;;;;;;;;;;;23.50;37.10;;;;;;484205;246;2164;-74
2022/11/13 02:47:43;;;;;;;;;;;23.50;37.30;;;;;;484137;246;1220;-74
2022/11/13 02:49:44;;;;;;;;;;;23.50;37.80;;;;;;484096;246;1202;-74
2022/11/13 02:51:46;;;;;;;;;;;23.60;37.40;;;;;;484112;246;1387;-74
2022/11/13 02:53:47;;;;;;;;;;;23.60;36.90;;;;;;484165;246;1188;-74
2022/11/13 02:55:48;;;;;;;;;;;23.60;37.30;;;;;;484090;246;1201;-74
2022/11/13 02:57:50;;;;;;;;;;;23.60;37.00;;;;;;484169;242;1219;-74
2022/11/13 02:59:51;;;;;;;;;;;23.60;36.90;;;;;;484104;246;1161;-74
2022/11/13 03:01:52;;;;;;;;;;;23.70;36.70;;;;;;484205;246;1314;-74
2022/11/13 03:03:54;;;;;;;;;;;23.60;37.40;;;;;;484130;246;1203;-74
2022/11/13 03:05:55;;;;;;;;;;;23.70;36.70;;;;;;484112;246;2153;-74
2022/11/13 03:07:56;;;;;;;;;;;23.70;37.30;;;;;;484154;246;1317;-74
2022/11/13 03:09:58;;;;;;;;;;;23.80;36.80;;;;;;484160;246;1247;-74
2022/11/13 03:11:59;;;;;;;;;;;23.70;37.10;;;;;;484128;246;1168;-74
2022/11/13 03:14:00;;;;;;;;;;;23.80;36.90;;;;;;484097;246;1170;-74
2022/11/13 03:16:02;;;;;;;;;;;23.80;36.60;;;;;;484185;246;1214;-74
2022/11/13 03:18:03;;;;;;;;;;;23.70;36.80;;;;;;484126;246;1316;-74
2022/11/13 03:20:04;;;;;;;;;;;23.70;36.60;;;;;;484143;246;1169;-74
2022/11/13 03:22:06;;;;;;;;;;;23.70;36.90;;;;;;484147;242;1226;-74
2022/11/13 03:24:07;;;;;;;;;;;23.70;36.60;;;;;;484134;246;1330;-74
2022/11/13 03:26:08;;;;;;;;;;;23.80;36.40;;;;;;484261;246;2164;-74
2022/11/13 03:28:10;;;;;;;;;;;23.70;36.40;;;;;;484224;246;1232;-74
2022/11/13 03:30:11;;;;;;;;;;;23.70;37.00;;;;;;484226;246;1165;-74
2022/11/13 03:32:12;;;;;;;;;;;23.70;36.60;;;;;;484240;246;1192;-74
2022/11/13 03:34:14;;;;;;;;;;;23.70;36.50;;;;;;484166;246;1129;-74
2022/11/13 03:36:15;;;;;;;;;;;23.70;36.80;;;;;;484287;246;1184;-74
2022/11/13 03:38:16;;;;;;;;;;;23.70;36.70;;;;;;484092;246;1266;-74
2022/11/13 03:40:18;;;;;;;;;;;23.70;37.10;;;;;;484192;246;1361;-74
2022/11/13 03:42:19;;;;;;;;;;;23.60;36.90;;;;;;484108;246;1181;-74
2022/11/13 03:44:20;;;;;;;;;;;23.60;37.70;;;;;;484187;242;1222;-74
2022/11/13 03:46:22;;;;;;;;;;;23.60;37.40;;;;;;484196;246;2191;-74
2022/11/13 03:48:23;;;;;;;;;;;23.70;37.70;;;;;;484197;246;1244;-74
2022/11/13 03:50:24;;;;;;;;;;;23.80;37.60;;;;;;484295;246;1341;-74
2022/11/13 03:52:26;;;;;;;;;;;23.80;37.30;;;;;;484195;246;1147;-74
2022/11/13 03:54:27;;;;;;;;;;;23.80;36.70;;;;;;484173;246;1218;-74
2022/11/13 03:56:28;;;;;;;;;;;23.90;37.30;;;;;;484202;246;1213;-74
2022/11/13 03:58:30;;;;;;;;;;;23.80;37.10;;;;;;484172;246;1258;-74
2022/11/13 04:00:31;;;;;;;;;;;23.80;36.70;;;;;;484121;246;1251;-74
2022/11/13 04:02:32;;;;;;;;;;;23.80;36.90;;;;;;484207;246;1182;-74
2022/11/13 04:04:34;;;;;;;;;;;23.90;36.50;;;;;;484144;246;1195;-74
2022/11/13 04:06:35;;;;;;;;;;;23.80;36.70;;;;;;484269;246;2191;-74
2022/11/13 04:08:36;;;;;;;;;;;23.80;36.60;;;;;;484114;246;1298;-74
2022/11/13 04:10:38;;;;;;;;;;;23.80;36.40;;;;;;484188;246;1165;-74
2022/11/13 04:12:39;;;;;;;;;;;23.80;36.60;;;;;;484139;242;1213;-74
2022/11/13 04:14:40;;;;;;;;;;;23.90;36.30;;;;;;484157;246;1368;-74
2022/11/13 04:16:42;;;;;;;;;;;23.80;36.80;;;;;;484237;246;1191;-74
2022/11/13 04:18:43;;;;;;;;;;;23.80;36.30;;;;;;484150;246;1246;-74
2022/11/13 04:20:44;;;;;;;;;;;23.80;36.80;;;;;;484122;246;1145;-74
2022/11/13 04:22:46;;;;;;;;;;;23.90;36.30;;;;;;484180;246;1178;-74
2022/11/13 04:24:47;;;;;;;;;;;23.90;36.20;;;;;;484244;246;1238;-74
2022/11/13 04:26:48;;;;;;;;;;;24.00;35.80;;;;;;484117;246;2153;-74
2022/11/13 04:28:50;;;;;;;;;;;24.10;36.00;;;;;;484122;242;1224;-74
2022/11/13 04:30:51;;;;;;;;;;;24.10;36.40;;;;;;484162;246;1218;-74
2022/11/13 04:32:52;;;;;;;;;;;24.10;35.90;;;;;;484127;246;1298;-74
2022/11/13 04:34:54;;;;;;;;;;;24.00;36.20;;;;;;484179;246;1217;-74
2022/11/13 04:36:55;;;;;;;;;;;24.00;36.30;;;;;;484220;246;1225;-74
2022/11/13 04:38:56;;;;;;;;;;;23.90;36.10;;;;;;484104;246;1682;-74
2022/11/13 04:43:18;;;;;;;;;;;23.80;36.20;;;;;;484122;246;1409;-74
2022/11/13 04:45:19;;;;;;;;;;;23.70;36.30;;;;;;484190;246;2191;-74
2022/11/13 04:47:21;;;;;;;;;;;23.70;36.30;;;;;;484234;246;1243;-74
2022/11/13 04:49:22;;;;;;;;;;;23.50;37.20;;;;;;484141;246;1186;-74
2022/11/13 04:51:23;;;;;;;;;;;23.50;36.70;;;;;;484115;246;1242;-74
2022/11/13 04:53:25;;;;;;;;;;;23.50;37.30;;;;;;484142;246;1214;-74
2022/11/13 04:55:26;;;;;;;;;;;23.50;36.80;;;;;;484104;246;1433;-74
2022/11/13 04:57:27;;;;;;;;;;;23.60;37.30;;;;;;484229;246;1145;-74
2022/11/13 04:59:29;;;;;;;;;;;23.60;37.00;;;;;;484215;246;1190;-74
2022/11/13 05:01:30;;;;;;;;;;;23.60;36.80;;;;;;484216;246;1359;-74
2022/11/13 05:03:31;;;;;;;;;;;23.60;37.20;;;;;;484179;246;1222;-74
2022/11/13 05:05:33;;;;;;;;;;;23.60;36.70;;;;;;484176;246;2203;-74
2022/11/13 05:07:34;;;;;;;;;;;23.60;37.40;;;;;;484144;246;1296;-74
2022/11/13 05:09:35;;;;;;;;;;;23.50;36.70;;;;;;484337;246;1217;-74
2022/11/13 05:11:37;;;;;;;;;;;23.60;37.60;;;;;;484145;246;1282;-74
2022/11/13 05:13:38;;;;;;;;;;;23.60;36.80;;;;;;484042;246;1211;-74
2022/11/13 05:15:39;;;;;;;;;;;23.60;37.40;;;;;;484166;246;1314;-74
2022/11/13 05:17:41;;;;;;;;;;;23.60;37.60;;;;;;484177;246;1157;-74
2022/11/13 05:19:42;;;;;;;;;;;23.60;37.10;;;;;;484093;246;1264;-74
2022/11/13 05:21:43;;;;;;;;;;;23.50;37.50;;;;;;484177;246;1257;-74
2022/11/13 05:23:45;;;;;;;;;;;23.60;37.00;;;;;;484146;246;1259;-74
2022/11/13 05:25:46;;;;;;;;;;;23.60;37.60;;;;;;484274;246;2207;-74
2022/11/13 05:27:47;;;;;;;;;;;23.60;36.90;;;;;;484154;246;1177;-74
2022/11/13 05:29:49;;;;;;;;;;;23.60;37.40;;;;;;484101;246;1174;-74
2022/11/13 05:31:50;;;;;;;;;;;23.60;37.10;;;;;;484227;246;1209;-74
2022/11/13 05:33:51;;;;;;;;;;;23.70;37.50;;;;;;484132;246;1178;-74
2022/11/13 05:35:52;;;;;;;;;;;23.70;37.70;;;;;;484205;246;1208;-74
2022/11/13 05:37:54;;;;;;;;;;;23.70;37.00;;;;;;484131;246;1242;-74
2022/11/13 05:39:55;;;;;;;;;;;23.70;37.40;;;;;;484298;246;1191;-74
2022/11/13 05:41:56;;;;;;;;;;;23.70;36.90;;;;;;484170;246;1119;-74
2022/11/13 05:43:58;;;;;;;;;;;23.70;37.30;;;;;;484135;246;1240;-74
2022/11/13 05:45:59;;;;;;;;;;;23.70;37.40;;;;;;484148;246;2152;-74
2022/11/13 05:48:01;;;;;;;;;;;23.80;37.00;;;;;;484197;246;1155;-74
2022/11/13 05:50:02;;;;;;;;;;;23.80;36.90;;;;;;484262;246;1188;-74
2022/11/13 05:52:03;;;;;;;;;;;23.70;36.60;;;;;;484268;246;1221;-74
2022/11/13 05:54:05;;;;;;;;;;;23.70;36.80;;;;;;484295;246;1127;-74
2022/11/13 05:56:07;;;;;;;;;;;23.70;37.30;;;;;;484172;246;1239;-73
2022/11/13 05:58:08;;;;;;;;;;;23.70;36.60;;;;;;484175;246;1228;-73
2022/11/13 06:00:09;;;;;;;;;;;23.70;37.00;;;;;;484272;246;1145;-73
2022/11/13 06:02:11;;;;;;;;;;;23.80;36.60;;;;;;484142;246;1208;-74
2022/11/13 06:04:12;;;;;;;;;;;23.80;36.90;;;;;;484141;246;1170;-74
2022/11/13 06:06:13;;;;;;;;;;;23.70;36.70;;;;;;484196;246;2148;-74
2022/11/13 06:08:15;;;;;;;;;;;23.70;36.90;;;;;;484174;246;1170;-74
2022/11/13 06:10:16;;;;;;;;;;;23.60;36.60;;;;;;484241;246;1160;-74
2022/11/13 06:12:17;;;;;;;;;;;23.60;37.20;;;;;;484130;246;1203;-74
2022/11/13 06:14:19;;;;;;;;;;;23.70;36.80;;;;;;484204;246;1232;-74
2022/11/13 06:16:20;;;;;;;;;;;23.70;36.90;;;;;;484167;246;1214;-74
2022/11/13 06:18:21;;;;;;;;;;;23.70;36.70;;;;;;484196;246;1119;-74
2022/11/13 06:20:23;;;;;;;;;;;23.70;37.20;;;;;;484261;246;1208;-74
2022/11/13 06:22:24;;;;;;;;;;;23.70;36.80;;;;;;484189;246;1188;-74
2022/11/13 06:24:25;;;;;;;;;;;23.80;37.00;;;;;;484235;246;1268;-74
2022/11/13 06:26:27;;;;;;;;;;;23.80;36.70;;;;;;484150;246;2188;-74
2022/11/13 06:28:28;;;;;;;;;;;23.70;36.90;;;;;;484293;242;1232;-74
2022/11/13 06:30:29;;;;;;;;;;;23.80;36.80;;;;;;484228;246;1190;-74
2022/11/13 06:32:31;;;;;;;;;;;23.80;36.80;;;;;;484209;246;1191;-74
2022/11/13 06:34:32;;;;;;;;;;;23.70;36.50;;;;;;484158;246;1184;-74
2022/11/13 06:36:33;;;;;;;;;;;23.80;36.70;;;;;;484106;246;1212;-74
2022/11/13 06:38:34;;;;;;;;;;;23.80;36.70;;;;;;484143;246;1209;-74
2022/11/13 06:40:36;;;;;;;;;;;23.70;36.60;;;;;;484200;246;1212;-74
2022/11/13 06:42:37;;;;;;;;;;;23.60;36.40;;;;;;484198;246;1373;-74
2022/11/13 06:44:38;;;;;;;;;;;23.70;37.10;;;;;;484100;246;1256;-74
2022/11/13 06:46:40;;;;;;;;;;;23.70;36.90;;;;;;484165;246;2236;-74
2022/11/13 06:48:41;;;;;;;;;;;23.80;36.50;;;;;;484136;246;1269;-74
2022/11/13 06:50:43;;;;;;;;;;;23.90;37.30;;;;;;484231;246;1235;-74
2022/11/13 06:52:44;;;;;;;;;;;23.90;37.10;;;;;;484153;246;1167;-74
2022/11/13 06:54:45;;;;;;;;;;;24.00;36.90;;;;;;484211;246;1156;-74
2022/11/13 06:56:46;;;;;;;;;;;24.00;36.50;;;;;;484245;246;1548;-74
2022/11/13 06:58:48;;;;;;;;;;;23.90;36.70;;;;;;484155;246;1191;-74
2022/11/13 07:00:49;;;;;;;;;;;23.90;36.40;;;;;;484152;246;1380;-74
2022/11/13 07:02:50;;;;;;;;;;;23.90;36.90;;;;;;484203;246;1254;-74
2022/11/13 07:04:52;;;;;;;;;;;23.70;36.50;;;;;;484312;246;1157;-74
2022/11/13 07:06:53;;;;;;;;;;;23.70;37.00;;;;;;484182;246;2156;-74
2022/11/13 07:08:54;;;;;;;;;;;23.70;36.60;;;;;;484292;246;1156;-74
2022/11/13 07:10:56;;;;;;;;;;;23.70;37.00;;;;;;484271;246;1084;-74
2022/11/13 07:12:57;;;;;;;;;;;23.60;36.70;;;;;;484203;246;1235;-74
2022/11/13 07:14:58;;;;;;;;;;;23.60;36.50;;;;;;484215;246;1271;-74
2022/11/13 07:17:00;;;;;;;;;;;23.60;36.90;;;;;;484207;246;1249;-74
2022/11/13 07:19:01;;;;;;;;;;;23.50;36.50;;;;;;484224;246;1156;-74
2022/11/13 07:21:02;;;;;;;;;;;23.40;37.30;;;;;;484196;246;1166;-74
2022/11/13 07:23:04;;;;;;;;;;;23.40;37.40;;;;;;484178;246;1130;-74
2022/11/13 07:25:05;;;;;;;;;;;23.40;38.10;;;;;;484244;246;1116;-74
2022/11/13 07:27:06;;;;;;;;;;;23.50;37.70;;;;;;484160;246;2179;-74
2022/11/13 07:29:08;;;;;;;;;;;23.50;38.30;;;;;;484147;246;1185;-74
2022/11/13 07:31:09;;;;;;;;;;;23.50;37.80;;;;;;484149;246;1194;-74
2022/11/13 07:33:10;;;;;;;;;;;23.50;37.80;;;;;;484147;246;1206;-74
2022/11/13 07:35:12;;;;;;;;;;;23.50;37.00;;;;;;484134;246;1222;-74
2022/11/13 07:37:13;;;;;;;;;;;23.60;37.30;;;;;;484258;246;1199;-74
2022/11/13 07:39:14;;;;;;;;;;;23.50;37.50;;;;;;484142;246;1234;-74
2022/11/13 07:41:16;;;;;;;;;;;23.50;37.80;;;;;;484192;246;1136;-74
2022/11/13 07:43:17;;;;;;;;;;;23.50;37.00;;;;;;484154;246;1254;-74
2022/11/13 07:45:18;;;;;;;;;;;23.50;37.10;;;;;;484161;246;1153;-74
2022/11/13 07:47:20;;;;;;;;;;;23.50;37.30;;;;;;484205;246;2204;-74
2022/11/13 07:49:21;;;;;;;;;;;23.60;37.10;;;;;;484171;246;1295;-74
2022/11/13 07:51:22;;;;;;;;;;;23.60;37.20;;;;;;484134;246;1343;-74
2022/11/13 07:53:24;;;;;;;;;;;23.60;36.80;;;;;;484158;246;1208;-74
2022/11/13 07:55:25;;;;;;;;;;;23.70;36.60;;;;;;484136;246;1317;-74
2022/11/13 07:57:26;;;;;;;;;;;23.60;37.20;;;;;;484204;246;1174;-74
2022/11/13 07:59:28;;;;;;;;;;;23.60;36.70;;;;;;484166;246;1137;-74
2022/11/13 08:01:29;;;;;;;;;;;23.60;37.40;;;;;;484191;242;1200;-74
2022/11/13 08:03:30;;;;;;;;;;;23.60;36.80;;;;;;484194;246;1286;-74
2022/11/13 08:05:32;;;;;;;;;;;23.70;37.10;;;;;;484196;246;1228;-74
2022/11/13 08:07:33;;;;;;;;;;;23.70;37.50;;;;;;484162;246;2195;-74
2022/11/13 08:09:34;;;;;;;;;;;23.70;37.20;;;;;;484266;246;1164;-74
2022/11/13 08:11:35;;;;;;;;;;;23.70;36.80;;;;;;484182;246;1153;-74
2022/11/13 08:13:37;;;;;;;;;;;23.70;37.30;;;;;;484209;246;1236;-74
2022/11/13 08:15:39;;;;;;;;;;;23.80;36.60;;;;;;484181;246;1201;-74
2022/11/13 08:17:40;;;;;;;;;;;23.90;36.60;;;;;;484248;242;1175;-74
2022/11/13 08:19:41;;;;;;;;;;;23.90;36.80;;;;;;484165;246;1144;-74
2022/11/13 08:21:42;;;;;;;;;;;23.90;36.50;;;;;;484154;246;1218;-74
2022/11/13 08:23:44;;;;;;;;;;;23.90;36.70;;;;;;484224;246;1349;-74
2022/11/13 08:25:45;;;;;;;;;;;23.90;36.70;;;;;;484187;246;1154;-74
2022/11/13 08:27:46;;;;;;;;;;;23.90;36.40;;;;;;484266;246;2192;-74
2022/11/13 08:29:48;;;;;;;;;;;23.80;36.40;;;;;;484087;246;1194;-74
2022/11/13 08:31:49;;;;;;;;;;;23.90;36.80;;;;;;484151;246;1258;-74
2022/11/13 08:33:50;;;;;;;;;;;23.70;36.60;;;;;;484173;246;1106;-74
2022/11/13 08:35:52;;;;;;;;;;;23.60;37.20;;;;;;484125;246;1157;-74
2022/11/13 08:37:53;;;;;;;;;;;23.60;37.10;;;;;;484114;246;1208;-74
2022/11/13 08:39:54;;;;;;;;;;;23.70;37.80;;;;;;484168;246;1289;-74
2022/11/13 08:41:56;;;;;;;;;;;23.70;36.80;;;;;;484143;246;1241;-74
2022/11/13 08:43:57;;;;;;;;;;;23.70;37.40;;;;;;484152;246;1172;-74
2022/11/13 08:45:58;;;;;;;;;;;23.80;37.10;;;;;;484091;246;1146;-74
2022/11/13 08:48:00;;;;;;;;;;;23.80;36.80;;;;;;484120;246;2148;-74
2022/11/13 08:50:02;;;;;;;;;;;23.90;37.00;;;;;;484171;246;1163;-74
2022/11/13 08:52:03;;;;;;;;;;;24.00;36.60;;;;;;484180;246;1195;-74
2022/11/13 08:54:04;;;;;;;;;;;24.00;36.60;;;;;;484172;246;1244;-74
2022/11/13 08:56:06;;;;;;;;;;;24.00;36.40;;;;;;484129;246;1385;-74
2022/11/13 08:58:07;;;;;;;;;;;24.00;36.70;;;;;;484305;246;1130;-74
2022/11/13 09:00:08;;;;;;;;;;;23.90;36.80;;;;;;484172;246;1177;-74
2022/11/13 09:02:11;;;;;;;;;;;23.90;36.40;;;;;;484197;246;1228;-74
2022/11/13 09:04:11;;;;;;;;;;;23.80;36.90;;;;;;484056;246;1397;-74
2022/11/13 09:06:12;;;;;;;;;;;23.90;36.50;;;;;;484153;246;1152;-74
2022/11/13 09:08:14;;;;;;;;;;;23.80;36.50;;;;;;484149;246;2160;-74
2022/11/13 09:10:15;;;;;;;;;;;23.70;36.80;;;;;;484219;246;1139;-74
2022/11/13 09:12:16;;;;;;;;;;;23.70;36.60;;;;;;484256;246;1180;-74
2022/11/13 09:14:18;;;;;;;;;;;23.70;36.90;;;;;;484118;246;1175;-74
2022/11/13 09:16:19;;;;;;;;;;;23.60;36.40;;;;;;484285;246;1445;-74
2022/11/13 09:18:20;;;;;;;;;;;23.50;37.70;;;;;;484138;246;1223;-74
2022/11/13 09:20:22;;;;;;;;;;;23.40;37.00;;;;;;484123;246;1181;-74
2022/11/13 09:22:23;;;;;;;;;;;23.40;37.20;;;;;;484175;246;1627;-74
2022/11/13 09:24:24;;;;;;;;;;;23.40;37.80;;;;;;484165;246;1227;-74
2022/11/13 09:26:26;;;;;;;;;;;23.40;37.70;;;;;;484183;246;1181;-74
2022/11/13 09:28:27;;;;;;;;;;;23.40;37.20;;;;;;484078;246;2196;-74
2022/11/13 09:30:28;;;;;;;;;;;23.40;38.00;;;;;;484106;246;1335;-74
2022/11/13 09:32:30;;;;;;;;;;;23.40;37.20;;;;;;484186;246;1166;-74
2022/11/13 09:34:32;;;;;;;;;;;23.40;37.70;;;;;;484058;246;1195;-74
2022/11/13 09:36:32;;;;;;;;;;;23.50;37.40;;;;;;484125;246;1388;-74
2022/11/13 09:38:34;;;;;;;;;;;23.50;37.30;;;;;;484097;246;1315;-74
2022/11/13 09:40:35;;;;;;;;;;;23.50;36.90;;;;;;482369;242;1461;-74
2022/11/13 09:42:36;;;;;;;;;;;23.50;37.30;;;;;;484063;246;1178;-74
2022/11/13 09:44:38;;;;;;;;;;;23.50;36.90;;;;;;484119;246;1275;-74
2022/11/13 09:46:39;;;;;;;;;;;23.50;37.10;;;;;;484145;246;1359;-74
2022/11/13 09:48:40;;;;;;;;;;;23.50;37.20;;;;;;484174;246;2251;-74
2022/11/13 09:50:41;;;;;;;;;;;23.50;37.30;;;;;;484232;246;1289;-74
2022/11/13 09:52:43;;;;;;;;;;;23.50;37.10;;;;;;484149;246;1150;-74
2022/11/13 09:54:44;;;;;;;;;;;23.60;36.90;;;;;;484150;246;1189;-74
2022/11/13 09:56:46;;;;;;;;;;;23.60;37.00;;;;;;484188;246;1291;-74
2022/11/13 09:58:48;;;;;;;;;;;23.60;37.10;;;;;;484138;246;1243;-74
2022/11/13 10:00:49;;;;;;;;;;;23.60;37.20;;;;;;484182;246;1282;-74
2022/11/13 10:02:50;;;;;;;;;;;23.60;36.90;;;;;;484120;246;1336;-74
2022/11/13 10:04:51;;;;;;;;;;;23.70;37.30;;;;;;484105;242;1229;-74
2022/11/13 10:06:53;;;;;;;;;;;23.70;37.20;;;;;;484142;246;1215;-74
2022/11/13 10:08:54;;;;;;;;;;;23.70;36.80;;;;;;484115;246;2168;-74
2022/11/13 10:10:56;;;;;;;;;;;23.70;37.00;;;;;;484164;246;1153;-74
2022/11/13 10:12:57;;;;;;;;;;;23.70;36.70;;;;;;484106;246;1361;-74
2022/11/13 10:14:58;;;;;;;;;;;23.50;36.90;;;;;;484147;246;1167;-74
2022/11/13 10:16:59;;;;;;;;;;;23.50;36.90;;;;;;484096;246;1213;-74
2022/11/13 10:19:01;;;;;;;;;;;23.50;36.90;;;;;;484192;246;1195;-74
2022/11/13 10:21:02;;;;;;;;;;;23.50;36.90;;;;;;484143;246;1161;-73
2022/11/13 10:23:03;;;;;;;;;;;23.60;37.30;;;;;;484169;246;1311;-73
2022/11/13 10:25:05;;;;;;;;;;;23.60;37.10;;;;;;484222;246;1169;-73
2022/11/13 10:27:06;;;;;;;;;;;23.70;37.30;;;;;;484202;246;1160;-74
2022/11/13 10:29:07;;;;;;;;;;;23.80;38.00;;;;;;484167;246;2156;-74
2022/11/13 10:31:09;;;;;;;;;;;23.90;38.00;;;;;;484218;246;1154;-74
2022/11/13 10:33:10;;;;;;;;;;;24.00;37.60;;;;;;484105;246;1202;-74
2022/11/13 10:35:12;;;;;;;;;;;24.00;37.70;;;;;;484211;246;1218;-74
2022/11/13 10:37:14;;;;;;;;;;;24.00;37.90;;;;;;484197;246;1251;-74
2022/11/13 10:39:15;;;;;;;;;;;24.00;37.40;;;;;;484172;246;1336;-74
2022/11/13 10:41:16;;;;;;;;;;;23.90;38.00;;;;;;484216;246;1285;-74
2022/11/13 10:43:18;;;;;;;;;;;23.90;37.40;;;;;;484155;246;1318;-74
2022/11/13 10:45:19;;;;;;;;;;;23.90;37.30;;;;;;484171;246;1448;-74
2022/11/13 10:47:20;;;;;;;;;;;24.00;37.10;;;;;;484159;246;1187;-74
2022/11/13 10:49:22;;;;;;;;;;;24.00;36.80;;;;;;484176;246;2195;-74
2022/11/13 10:51:24;;;;;;;;;;;23.90;36.80;;;;;;484254;246;1205;-74
2022/11/13 10:53:24;;;;;;;;;;;23.90;36.70;;;;;;484331;246;1336;-74
2022/11/13 10:55:26;;;;;;;;;;;23.90;36.50;;;;;;484155;246;1225;-74
2022/11/13 10:57:27;;;;;;;;;;;23.90;36.50;;;;;;484195;246;1167;-74
2022/11/13 10:59:29;;;;;;;;;;;23.80;36.50;;;;;;484172;246;1630;-74
2022/11/13 11:01:30;;;;;;;;;;;23.70;36.60;;;;;;484145;246;1179;-74
2022/11/13 11:03:31;;;;;;;;;;;23.70;36.60;;;;;;484124;246;1180;-74
2022/11/13 11:05:33;;;;;;;;;;;23.60;36.60;;;;;;484187;246;1187;-74
2022/11/13 11:07:34;;;;;;;;;;;23.40;37.00;;;;;;484142;246;2203;-74
2022/11/13 11:09:36;;;;;;;;;;;23.40;37.10;;;;;;484159;246;1209;-74
2022/11/13 11:13:56;;;;;;;;;;;23.40;37.10;;;;;;484086;246;1236;-74
2022/11/13 11:15:57;;;;;;;;;;;23.30;37.10;;;;;;484240;246;1311;-74
2022/11/13 11:17:58;;;;;;;;;;;23.30;37.10;;;;;;484145;246;1166;-74
2022/11/13 11:20:00;;;;;;;;;;;23.40;37.10;;;;;;484221;246;1231;-74
2022/11/13 11:22:01;;;;;;;;;;;23.40;37.10;;;;;;484193;246;1196;-74
2022/11/13 11:24:02;;;;;;;;;;;23.40;37.00;;;;;;484182;246;1193;-74
2022/11/13 11:26:04;;;;;;;;;;;23.40;37.00;;;;;;484168;246;1212;-74
2022/11/13 11:28:05;;;;;;;;;;;23.40;37.00;;;;;;484081;246;2196;-74
2022/11/13 11:30:06;;;;;;;;;;;23.40;36.90;;;;;;484213;246;1184;-74
2022/11/13 11:32:08;;;;;;;;;;;23.40;37.00;;;;;;484151;246;1266;-74
2022/11/13 11:34:09;;;;;;;;;;;23.50;37.00;;;;;;484222;246;1250;-74
2022/11/13 11:36:10;;;;;;;;;;;23.50;36.90;;;;;;484191;246;1196;-74
2022/11/13 11:38:12;;;;;;;;;;;23.50;36.90;;;;;;484209;246;1188;-74
2022/11/13 11:40:13;;;;;;;;;;;23.60;36.80;;;;;;484162;246;1160;-74
2022/11/13 11:42:14;;;;;;;;;;;23.60;36.80;;;;;;484103;246;1205;-74
2022/11/13 11:44:16;;;;;;;;;;;23.60;36.90;;;;;;484129;246;1269;-74
2022/11/13 11:46:17;;;;;;;;;;;23.60;36.90;;;;;;484103;246;1427;-74
2022/11/13 11:48:18;;;;;;;;;;;23.60;36.90;;;;;;484128;246;2191;-74
2022/11/13 11:50:20;;;;;;;;;;;23.70;36.90;;;;;;484190;246;1282;-74
2022/11/13 11:52:21;;;;;;;;;;;23.70;36.80;;;;;;484147;246;1180;-74
2022/11/13 11:54:22;;;;;;;;;;;23.70;36.60;;;;;;484095;246;1246;-74
2022/11/13 11:56:24;;;;;;;;;;;23.70;36.70;;;;;;484150;246;1257;-74
2022/11/13 11:58:26;;;;;;;;;;;23.70;36.70;;;;;;484145;246;1282;-74
2022/11/13 12:00:27;;;;;;;;;;;23.70;36.70;;;;;;484151;246;1169;-74
2022/11/13 12:02:28;;;;;;;;;;;23.70;36.70;;;;;;484187;246;1208;-74